sensor_id;sensor_type;location;lat;lon;timestamp;P1;durP1;ratioP1;P2;durP2;ratioP2
50483;SDS011;36409;52.168;20.878;2023-11-19T00:00:40;60.17;;;30.30;;
50483;SDS011;36409;52.168;20.878;2023-11-19T00:03:40;51.90;;;29.27;;
50483;SDS011;36409;52.168;20.878;2023-11-19T00:06:10;57.87;;;30.07;;
50483;SDS011;36409;52.168;20.878;2023-11-19T00:08:40;55.80;;;29.33;;
50483;SDS011;36409;52.168;20.878;2023-11-19T00:11:09;59.37;;;29.50;;
50483;SDS011;36409;52.168;20.878;2023-11-19T00:13:38;63.70;;;32.47;;
50483;SDS011;36409;52.168;20.878;2023-11-19T00:16:08;54.27;;;28.90;;
50483;SDS011;36409;52.168;20.878;2023-11-19T00:18:38;56.87;;;31.30;;
50483;SDS011;36409;52.168;20.878;2023-11-19T00:21:07;60.07;;;29.43;;
50483;SDS011;36409;52.168;20.878;2023-11-19T00:23:37;57.07;;;30.07;;
50483;SDS011;36409;52.168;20.878;2023-11-19T00:26:10;57.13;;;28.53;;
50483;SDS011;36409;52.168;20.878;2023-11-19T00:28:44;59.73;;;29.57;;
50483;SDS011;36409;52.168;20.878;2023-11-19T00:31:15;61.67;;;30.53;;
50483;SDS011;36409;52.168;20.878;2023-11-19T00:33:49;61.63;;;30.63;;
50483;SDS011;36409;52.168;20.878;2023-11-19T00:36:18;60.77;;;30.63;;
50483;SDS011;36409;52.168;20.878;2023-11-19T00:38:48;61.53;;;30.83;;
50483;SDS011;36409;52.168;20.878;2023-11-19T00:41:17;57.63;;;30.07;;
50483;SDS011;36409;52.168;20.878;2023-11-19T00:43:46;64.63;;;32.83;;
50483;SDS011;36409;52.168;20.878;2023-11-19T00:46:17;64.20;;;32.67;;
50483;SDS011;36409;52.168;20.878;2023-11-19T00:48:49;66.90;;;33.40;;
50483;SDS011;36409;52.168;20.878;2023-11-19T00:51:18;65.00;;;30.97;;
50483;SDS011;36409;52.168;20.878;2023-11-19T00:53:47;60.37;;;30.70;;
50483;SDS011;36409;52.168;20.878;2023-11-19T00:56:17;68.67;;;32.30;;
50483;SDS011;36409;52.168;20.878;2023-11-19T00:58:47;65.50;;;31.10;;
50483;SDS011;36409;52.168;20.878;2023-11-19T01:01:16;64.67;;;30.63;;
50483;SDS011;36409;52.168;20.878;2023-11-19T01:03:46;63.17;;;31.30;;
50483;SDS011;36409;52.168;20.878;2023-11-19T01:06:29;63.97;;;30.63;;
50483;SDS011;36409;52.168;20.878;2023-11-19T01:08:59;62.47;;;32.07;;
50483;SDS011;36409;52.168;20.878;2023-11-19T01:11:28;69.57;;;33.17;;
50483;SDS011;36409;52.168;20.878;2023-11-19T01:13:57;71.67;;;34.20;;
50483;SDS011;36409;52.168;20.878;2023-11-19T01:16:28;66.60;;;33.40;;
50483;SDS011;36409;52.168;20.878;2023-11-19T01:18:58;64.40;;;31.00;;
50483;SDS011;36409;52.168;20.878;2023-11-19T01:21:44;73.37;;;33.03;;
50483;SDS011;36409;52.168;20.878;2023-11-19T01:24:13;70.23;;;33.33;;
50483;SDS011;36409;52.168;20.878;2023-11-19T01:26:45;65.80;;;31.50;;
50483;SDS011;36409;52.168;20.878;2023-11-19T01:29:14;69.40;;;33.90;;
50483;SDS011;36409;52.168;20.878;2023-11-19T01:31:45;74.73;;;33.50;;
50483;SDS011;36409;52.168;20.878;2023-11-19T01:34:14;70.80;;;33.67;;
50483;SDS011;36409;52.168;20.878;2023-11-19T01:36:44;66.13;;;33.50;;
50483;SDS011;36409;52.168;20.878;2023-11-19T01:39:14;66.93;;;33.57;;
50483;SDS011;36409;52.168;20.878;2023-11-19T01:41:43;67.60;;;32.43;;
50483;SDS011;36409;52.168;20.878;2023-11-19T01:44:12;66.73;;;32.43;;
50483;SDS011;36409;52.168;20.878;2023-11-19T01:46:41;65.30;;;32.67;;
50483;SDS011;36409;52.168;20.878;2023-11-19T01:49:15;68.07;;;31.80;;
50483;SDS011;36409;52.168;20.878;2023-11-19T01:51:46;67.93;;;34.20;;
50483;SDS011;36409;52.168;20.878;2023-11-19T01:54:16;65.73;;;34.03;;
50483;SDS011;36409;52.168;20.878;2023-11-19T01:56:45;67.40;;;33.53;;
50483;SDS011;36409;52.168;20.878;2023-11-19T01:59:14;69.03;;;34.13;;
50483;SDS011;36409;52.168;20.878;2023-11-19T02:01:44;77.90;;;34.50;;
50483;SDS011;36409;52.168;20.878;2023-11-19T02:04:13;72.07;;;34.93;;
50483;SDS011;36409;52.168;20.878;2023-11-19T02:06:43;69.05;;;32.90;;
50483;SDS011;36409;52.168;20.878;2023-11-19T02:09:16;64.67;;;33.50;;
50483;SDS011;36409;52.168;20.878;2023-11-19T02:11:47;66.93;;;32.97;;
50483;SDS011;36409;52.168;20.878;2023-11-19T02:14:18;62.90;;;32.83;;
50483;SDS011;36409;52.168;20.878;2023-11-19T02:16:55;69.13;;;33.70;;
50483;SDS011;36409;52.168;20.878;2023-11-19T02:19:24;63.73;;;31.47;;
50483;SDS011;36409;52.168;20.878;2023-11-19T02:21:54;62.27;;;31.90;;
50483;SDS011;36409;52.168;20.878;2023-11-19T02:24:25;60.17;;;31.13;;
50483;SDS011;36409;52.168;20.878;2023-11-19T02:26:59;58.80;;;31.53;;
50483;SDS011;36409;52.168;20.878;2023-11-19T02:29:35;64.10;;;32.27;;
50483;SDS011;36409;52.168;20.878;2023-11-19T02:32:05;61.50;;;31.00;;
50483;SDS011;36409;52.168;20.878;2023-11-19T02:34:37;56.53;;;30.43;;
50483;SDS011;36409;52.168;20.878;2023-11-19T02:37:06;64.00;;;32.47;;
50483;SDS011;36409;52.168;20.878;2023-11-19T02:39:37;65.97;;;32.60;;
50483;SDS011;36409;52.168;20.878;2023-11-19T02:42:06;58.70;;;30.47;;
50483;SDS011;36409;52.168;20.878;2023-11-19T02:44:36;59.73;;;31.07;;
50483;SDS011;36409;52.168;20.878;2023-11-19T02:47:06;58.97;;;30.80;;
50483;SDS011;36409;52.168;20.878;2023-11-19T02:49:35;57.67;;;30.10;;
50483;SDS011;36409;52.168;20.878;2023-11-19T02:52:06;55.17;;;29.10;;
50483;SDS011;36409;52.168;20.878;2023-11-19T02:54:37;56.00;;;28.97;;
50483;SDS011;36409;52.168;20.878;2023-11-19T02:57:07;56.60;;;30.67;;
50483;SDS011;36409;52.168;20.878;2023-11-19T02:59:49;52.40;;;29.07;;
50483;SDS011;36409;52.168;20.878;2023-11-19T03:02:18;52.00;;;27.80;;
50483;SDS011;36409;52.168;20.878;2023-11-19T03:04:47;56.03;;;30.27;;
50483;SDS011;36409;52.168;20.878;2023-11-19T03:07:16;49.67;;;27.33;;
50483;SDS011;36409;52.168;20.878;2023-11-19T03:09:45;54.27;;;27.27;;
50483;SDS011;36409;52.168;20.878;2023-11-19T03:12:14;49.85;;;28.00;;
50483;SDS011;36409;52.168;20.878;2023-11-19T03:14:43;46.93;;;27.33;;
50483;SDS011;36409;52.168;20.878;2023-11-19T03:17:15;42.63;;;24.83;;
50483;SDS011;36409;52.168;20.878;2023-11-19T03:19:46;46.37;;;26.13;;
50483;SDS011;36409;52.168;20.878;2023-11-19T03:22:16;49.80;;;27.20;;
50483;SDS011;36409;52.168;20.878;2023-11-19T03:24:45;50.13;;;27.33;;
50483;SDS011;36409;52.168;20.878;2023-11-19T03:27:14;50.65;;;28.20;;
50483;SDS011;36409;52.168;20.878;2023-11-19T03:29:44;52.20;;;29.07;;
50483;SDS011;36409;52.168;20.878;2023-11-19T03:32:13;49.00;;;27.10;;
50483;SDS011;36409;52.168;20.878;2023-11-19T03:34:42;60.10;;;28.87;;
50483;SDS011;36409;52.168;20.878;2023-11-19T03:37:12;61.27;;;29.47;;
50483;SDS011;36409;52.168;20.878;2023-11-19T03:39:44;60.67;;;30.33;;
50483;SDS011;36409;52.168;20.878;2023-11-19T03:42:13;58.83;;;28.70;;
50483;SDS011;36409;52.168;20.878;2023-11-19T03:44:42;52.83;;;28.13;;
50483;SDS011;36409;52.168;20.878;2023-11-19T03:47:11;62.03;;;29.23;;
50483;SDS011;36409;52.168;20.878;2023-11-19T03:49:40;59.37;;;28.77;;
50483;SDS011;36409;52.168;20.878;2023-11-19T03:52:12;54.20;;;27.00;;
50483;SDS011;36409;52.168;20.878;2023-11-19T03:54:48;62.05;;;30.35;;
50483;SDS011;36409;52.168;20.878;2023-11-19T03:57:17;56.27;;;29.20;;
50483;SDS011;36409;52.168;20.878;2023-11-19T03:59:46;57.83;;;28.33;;
50483;SDS011;36409;52.168;20.878;2023-11-19T04:02:15;60.60;;;29.80;;
50483;SDS011;36409;52.168;20.878;2023-11-19T04:04:45;62.73;;;30.60;;
50483;SDS011;36409;52.168;20.878;2023-11-19T04:07:16;65.93;;;30.57;;
50483;SDS011;36409;52.168;20.878;2023-11-19T04:09:45;67.47;;;33.57;;
50483;SDS011;36409;52.168;20.878;2023-11-19T04:12:15;62.63;;;30.43;;
50483;SDS011;36409;52.168;20.878;2023-11-19T04:14:44;62.70;;;29.75;;
50483;SDS011;36409;52.168;20.878;2023-11-19T04:17:16;64.80;;;30.33;;
50483;SDS011;36409;52.168;20.878;2023-11-19T04:19:47;62.10;;;30.23;;
50483;SDS011;36409;52.168;20.878;2023-11-19T04:22:18;56.33;;;27.83;;
50483;SDS011;36409;52.168;20.878;2023-11-19T04:24:47;63.40;;;30.80;;
50483;SDS011;36409;52.168;20.878;2023-11-19T04:27:17;65.83;;;32.07;;
50483;SDS011;36409;52.168;20.878;2023-11-19T04:29:46;62.60;;;31.00;;
50483;SDS011;36409;52.168;20.878;2023-11-19T04:32:16;60.23;;;28.67;;
50483;SDS011;36409;52.168;20.878;2023-11-19T04:34:45;67.33;;;32.13;;
50483;SDS011;36409;52.168;20.878;2023-11-19T04:37:15;58.23;;;29.50;;
50483;SDS011;36409;52.168;20.878;2023-11-19T04:39:44;54.73;;;27.03;;
50483;SDS011;36409;52.168;20.878;2023-11-19T04:42:13;59.30;;;27.87;;
50483;SDS011;36409;52.168;20.878;2023-11-19T04:44:44;57.27;;;28.30;;
50483;SDS011;36409;52.168;20.878;2023-11-19T04:47:13;57.47;;;29.00;;
50483;SDS011;36409;52.168;20.878;2023-11-19T04:49:43;56.43;;;27.20;;
50483;SDS011;36409;52.168;20.878;2023-11-19T04:52:12;57.30;;;28.37;;
50483;SDS011;36409;52.168;20.878;2023-11-19T04:54:42;57.37;;;28.30;;
50483;SDS011;36409;52.168;20.878;2023-11-19T04:57:12;57.77;;;28.87;;
50483;SDS011;36409;52.168;20.878;2023-11-19T04:59:41;53.83;;;27.90;;
50483;SDS011;36409;52.168;20.878;2023-11-19T05:02:12;54.57;;;27.07;;
50483;SDS011;36409;52.168;20.878;2023-11-19T05:04:43;54.57;;;28.53;;
50483;SDS011;36409;52.168;20.878;2023-11-19T05:07:14;55.30;;;28.10;;
50483;SDS011;36409;52.168;20.878;2023-11-19T05:09:44;54.27;;;28.10;;
50483;SDS011;36409;52.168;20.878;2023-11-19T05:12:15;56.90;;;27.33;;
50483;SDS011;36409;52.168;20.878;2023-11-19T05:14:44;52.65;;;27.80;;
50483;SDS011;36409;52.168;20.878;2023-11-19T05:17:17;56.33;;;28.93;;
50483;SDS011;36409;52.168;20.878;2023-11-19T05:19:49;60.57;;;28.80;;
50483;SDS011;36409;52.168;20.878;2023-11-19T05:22:18;60.10;;;29.47;;
50483;SDS011;36409;52.168;20.878;2023-11-19T05:24:49;60.83;;;29.53;;
50483;SDS011;36409;52.168;20.878;2023-11-19T05:27:18;58.00;;;28.93;;
50483;SDS011;36409;52.168;20.878;2023-11-19T05:29:47;59.40;;;28.10;;
50483;SDS011;36409;52.168;20.878;2023-11-19T05:32:16;62.93;;;30.77;;
50483;SDS011;36409;52.168;20.878;2023-11-19T05:34:45;58.67;;;29.17;;
50483;SDS011;36409;52.168;20.878;2023-11-19T05:37:17;64.17;;;29.57;;
50483;SDS011;36409;52.168;20.878;2023-11-19T05:39:48;59.23;;;29.23;;
50483;SDS011;36409;52.168;20.878;2023-11-19T05:42:19;63.73;;;29.07;;
50483;SDS011;36409;52.168;20.878;2023-11-19T05:44:48;58.40;;;28.77;;
50483;SDS011;36409;52.168;20.878;2023-11-19T05:47:17;56.20;;;27.47;;
50483;SDS011;36409;52.168;20.878;2023-11-19T05:49:47;62.00;;;28.17;;
50483;SDS011;36409;52.168;20.878;2023-11-19T05:52:17;59.90;;;28.30;;
50483;SDS011;36409;52.168;20.878;2023-11-19T05:54:46;59.77;;;28.63;;
50483;SDS011;36409;52.168;20.878;2023-11-19T05:57:19;53.53;;;27.03;;
50483;SDS011;36409;52.168;20.878;2023-11-19T05:59:51;57.43;;;27.43;;
50483;SDS011;36409;52.168;20.878;2023-11-19T06:02:23;57.95;;;27.05;;
50483;SDS011;36409;52.168;20.878;2023-11-19T06:04:52;56.57;;;27.10;;
50483;SDS011;36409;52.168;20.878;2023-11-19T06:07:22;52.50;;;26.37;;
50483;SDS011;36409;52.168;20.878;2023-11-19T06:09:52;51.37;;;26.37;;
50483;SDS011;36409;52.168;20.878;2023-11-19T06:12:22;51.97;;;25.17;;
50483;SDS011;36409;52.168;20.878;2023-11-19T06:14:51;48.93;;;25.87;;
50483;SDS011;36409;52.168;20.878;2023-11-19T06:17:20;44.63;;;23.90;;
50483;SDS011;36409;52.168;20.878;2023-11-19T06:19:49;42.17;;;22.30;;
50483;SDS011;36409;52.168;20.878;2023-11-19T06:22:19;42.77;;;22.93;;
50483;SDS011;36409;52.168;20.878;2023-11-19T06:24:49;39.83;;;21.97;;
50483;SDS011;36409;52.168;20.878;2023-11-19T06:27:18;42.77;;;21.40;;
50483;SDS011;36409;52.168;20.878;2023-11-19T06:29:49;43.33;;;21.60;;
50483;SDS011;36409;52.168;20.878;2023-11-19T06:32:26;36.20;;;19.50;;
50483;SDS011;36409;52.168;20.878;2023-11-19T06:34:56;31.73;;;18.23;;
50483;SDS011;36409;52.168;20.878;2023-11-19T06:37:26;30.30;;;16.50;;
50483;SDS011;36409;52.168;20.878;2023-11-19T06:39:56;34.23;;;20.37;;
50483;SDS011;36409;52.168;20.878;2023-11-19T06:42:25;40.20;;;21.07;;
50483;SDS011;36409;52.168;20.878;2023-11-19T06:44:55;20.53;;;12.57;;
50483;SDS011;36409;52.168;20.878;2023-11-19T06:47:25;23.80;;;13.37;;
50483;SDS011;36409;52.168;20.878;2023-11-19T06:49:56;21.47;;;12.87;;
50483;SDS011;36409;52.168;20.878;2023-11-19T06:52:26;18.27;;;11.13;;
50483;SDS011;36409;52.168;20.878;2023-11-19T06:54:57;18.30;;;11.40;;
50483;SDS011;36409;52.168;20.878;2023-11-19T06:57:31;16.90;;;10.27;;
50483;SDS011;36409;52.168;20.878;2023-11-19T07:00:01;15.60;;;9.77;;
50483;SDS011;36409;52.168;20.878;2023-11-19T07:02:32;16.27;;;10.30;;
50483;SDS011;36409;52.168;20.878;2023-11-19T07:05:02;17.93;;;9.67;;
50483;SDS011;36409;52.168;20.878;2023-11-19T07:07:33;24.90;;;14.03;;
50483;SDS011;36409;52.168;20.878;2023-11-19T07:10:07;25.53;;;14.80;;
50483;SDS011;36409;52.168;20.878;2023-11-19T07:12:37;26.10;;;14.63;;
50483;SDS011;36409;52.168;20.878;2023-11-19T07:15:08;25.73;;;15.67;;
50483;SDS011;36409;52.168;20.878;2023-11-19T07:17:39;24.33;;;14.63;;
50483;SDS011;36409;52.168;20.878;2023-11-19T07:20:11;23.87;;;14.67;;
50483;SDS011;36409;52.168;20.878;2023-11-19T07:22:43;22.13;;;13.90;;
50483;SDS011;36409;52.168;20.878;2023-11-19T07:25:13;22.10;;;13.50;;
50483;SDS011;36409;52.168;20.878;2023-11-19T07:27:43;18.90;;;12.97;;
50483;SDS011;36409;52.168;20.878;2023-11-19T07:30:12;22.20;;;14.43;;
50483;SDS011;36409;52.168;20.878;2023-11-19T07:32:42;21.37;;;13.77;;
50483;SDS011;36409;52.168;20.878;2023-11-19T07:35:11;20.60;;;13.03;;
50483;SDS011;36409;52.168;20.878;2023-11-19T07:37:40;18.33;;;12.27;;
50483;SDS011;36409;52.168;20.878;2023-11-19T07:40:11;24.00;;;14.33;;
50483;SDS011;36409;52.168;20.878;2023-11-19T07:42:44;20.45;;;14.23;;
50483;SDS011;36409;52.168;20.878;2023-11-19T07:45:13;18.83;;;13.30;;
50483;SDS011;36409;52.168;20.878;2023-11-19T07:47:43;21.87;;;12.73;;
50483;SDS011;36409;52.168;20.878;2023-11-19T07:50:13;19.07;;;12.57;;
50483;SDS011;36409;52.168;20.878;2023-11-19T07:52:44;21.97;;;14.07;;
50483;SDS011;36409;52.168;20.878;2023-11-19T07:55:14;19.53;;;13.63;;
50483;SDS011;36409;52.168;20.878;2023-11-19T07:57:43;23.77;;;14.67;;
50483;SDS011;36409;52.168;20.878;2023-11-19T08:00:13;21.17;;;14.43;;
50483;SDS011;36409;52.168;20.878;2023-11-19T08:02:44;21.70;;;14.33;;
50483;SDS011;36409;52.168;20.878;2023-11-19T08:05:14;23.20;;;15.87;;
50483;SDS011;36409;52.168;20.878;2023-11-19T08:07:43;24.70;;;15.57;;
50483;SDS011;36409;52.168;20.878;2023-11-19T08:10:12;22.03;;;14.97;;
50483;SDS011;36409;52.168;20.878;2023-11-19T08:12:44;38.40;;;20.77;;
50483;SDS011;36409;52.168;20.878;2023-11-19T08:15:14;27.47;;;17.27;;
50483;SDS011;36409;52.168;20.878;2023-11-19T08:17:59;25.07;;;15.20;;
50483;SDS011;36409;52.168;20.878;2023-11-19T08:20:28;23.13;;;15.50;;
50483;SDS011;36409;52.168;20.878;2023-11-19T08:22:57;22.50;;;14.43;;
50483;SDS011;36409;52.168;20.878;2023-11-19T08:25:30;21.60;;;14.40;;
50483;SDS011;36409;52.168;20.878;2023-11-19T08:28:01;23.70;;;14.43;;
50483;SDS011;36409;52.168;20.878;2023-11-19T08:30:34;24.65;;;15.30;;
50483;SDS011;36409;52.168;20.878;2023-11-19T08:33:04;25.80;;;15.07;;
50483;SDS011;36409;52.168;20.878;2023-11-19T08:35:34;26.30;;;15.60;;
50483;SDS011;36409;52.168;20.878;2023-11-19T08:38:03;25.50;;;15.87;;
50483;SDS011;36409;52.168;20.878;2023-11-19T08:40:32;25.63;;;16.33;;
50483;SDS011;36409;52.168;20.878;2023-11-19T08:43:02;25.27;;;16.20;;
50483;SDS011;36409;52.168;20.878;2023-11-19T08:45:31;22.77;;;15.50;;
50483;SDS011;36409;52.168;20.878;2023-11-19T08:48:00;23.90;;;15.47;;
50483;SDS011;36409;52.168;20.878;2023-11-19T08:50:29;26.07;;;15.70;;
50483;SDS011;36409;52.168;20.878;2023-11-19T08:52:59;26.47;;;15.60;;
50483;SDS011;36409;52.168;20.878;2023-11-19T08:55:28;24.03;;;16.00;;
50483;SDS011;36409;52.168;20.878;2023-11-19T08:57:57;23.83;;;15.03;;
50483;SDS011;36409;52.168;20.878;2023-11-19T09:00:30;24.97;;;14.97;;
50483;SDS011;36409;52.168;20.878;2023-11-19T09:03:00;23.20;;;15.50;;
50483;SDS011;36409;52.168;20.878;2023-11-19T09:05:29;22.50;;;14.75;;
50483;SDS011;36409;52.168;20.878;2023-11-19T09:07:59;23.93;;;14.43;;
50483;SDS011;36409;52.168;20.878;2023-11-19T09:10:28;21.97;;;14.60;;
50483;SDS011;36409;52.168;20.878;2023-11-19T09:12:57;24.80;;;15.55;;
50483;SDS011;36409;52.168;20.878;2023-11-19T09:15:27;23.40;;;14.87;;
50483;SDS011;36409;52.168;20.878;2023-11-19T09:17:57;24.30;;;14.67;;
50483;SDS011;36409;52.168;20.878;2023-11-19T09:20:26;18.90;;;12.85;;
50483;SDS011;36409;52.168;20.878;2023-11-19T09:23:00;23.38;;;13.35;;
50483;SDS011;36409;52.168;20.878;2023-11-19T09:25:29;24.20;;;14.23;;
50483;SDS011;36409;52.168;20.878;2023-11-19T09:28:12;20.53;;;13.87;;
50483;SDS011;36409;52.168;20.878;2023-11-19T09:30:42;20.40;;;12.87;;
50483;SDS011;36409;52.168;20.878;2023-11-19T09:33:11;22.93;;;15.10;;
50483;SDS011;36409;52.168;20.878;2023-11-19T09:35:44;22.33;;;15.00;;
50483;SDS011;36409;52.168;20.878;2023-11-19T09:38:13;24.10;;;15.40;;
50483;SDS011;36409;52.168;20.878;2023-11-19T09:40:42;22.57;;;14.27;;
50483;SDS011;36409;52.168;20.878;2023-11-19T09:43:11;25.90;;;15.83;;
50483;SDS011;36409;52.168;20.878;2023-11-19T09:45:45;26.47;;;16.73;;
50483;SDS011;36409;52.168;20.878;2023-11-19T09:48:18;27.53;;;15.70;;
50483;SDS011;36409;52.168;20.878;2023-11-19T09:50:53;25.90;;;16.27;;
50483;SDS011;36409;52.168;20.878;2023-11-19T09:53:24;27.30;;;16.30;;
50483;SDS011;36409;52.168;20.878;2023-11-19T09:55:54;27.47;;;17.20;;
50483;SDS011;36409;52.168;20.878;2023-11-19T09:58:27;25.45;;;15.60;;
50483;SDS011;36409;52.168;20.878;2023-11-19T10:00:58;25.80;;;16.30;;
50483;SDS011;36409;52.168;20.878;2023-11-19T10:03:48;25.60;;;15.83;;
50483;SDS011;36409;52.168;20.878;2023-11-19T10:06:26;24.57;;;15.27;;
50483;SDS011;36409;52.168;20.878;2023-11-19T10:08:58;25.37;;;15.13;;
50483;SDS011;36409;52.168;20.878;2023-11-19T10:11:28;23.13;;;14.63;;
50483;SDS011;36409;52.168;20.878;2023-11-19T10:13:57;29.67;;;16.23;;
50483;SDS011;36409;52.168;20.878;2023-11-19T10:16:28;26.97;;;15.73;;
50483;SDS011;36409;52.168;20.878;2023-11-19T10:19:02;26.17;;;15.83;;
50483;SDS011;36409;52.168;20.878;2023-11-19T10:21:33;30.30;;;16.43;;
50483;SDS011;36409;52.168;20.878;2023-11-19T10:24:04;23.83;;;15.40;;
50483;SDS011;36409;52.168;20.878;2023-11-19T10:26:36;25.00;;;16.37;;
50483;SDS011;36409;52.168;20.878;2023-11-19T10:29:05;26.60;;;15.87;;
50483;SDS011;36409;52.168;20.878;2023-11-19T10:31:36;29.47;;;16.90;;
50483;SDS011;36409;52.168;20.878;2023-11-19T10:34:05;26.97;;;16.80;;
50483;SDS011;36409;52.168;20.878;2023-11-19T10:36:53;25.27;;;16.47;;
50483;SDS011;36409;52.168;20.878;2023-11-19T10:39:24;25.43;;;16.17;;
50483;SDS011;36409;52.168;20.878;2023-11-19T10:42:19;27.37;;;16.03;;
50483;SDS011;36409;52.168;20.878;2023-11-19T10:44:49;24.87;;;15.33;;
50483;SDS011;36409;52.168;20.878;2023-11-19T10:47:21;26.53;;;16.67;;
50483;SDS011;36409;52.168;20.878;2023-11-19T10:49:58;28.43;;;16.93;;
50483;SDS011;36409;52.168;20.878;2023-11-19T10:52:28;28.37;;;17.23;;
50483;SDS011;36409;52.168;20.878;2023-11-19T10:55:00;25.30;;;16.60;;
50483;SDS011;36409;52.168;20.878;2023-11-19T10:57:33;24.03;;;15.80;;
50483;SDS011;36409;52.168;20.878;2023-11-19T11:00:09;27.93;;;17.50;;
50483;SDS011;36409;52.168;20.878;2023-11-19T11:02:47;27.03;;;16.80;;
50483;SDS011;36409;52.168;20.878;2023-11-19T11:05:24;27.40;;;17.93;;
50483;SDS011;36409;52.168;20.878;2023-11-19T11:07:55;30.90;;;18.43;;
50483;SDS011;36409;52.168;20.878;2023-11-19T11:10:31;34.03;;;18.97;;
50483;SDS011;36409;52.168;20.878;2023-11-19T11:13:24;29.80;;;18.70;;
50483;SDS011;36409;52.168;20.878;2023-11-19T11:15:57;28.90;;;17.60;;
50483;SDS011;36409;52.168;20.878;2023-11-19T11:18:34;30.40;;;17.73;;
50483;SDS011;36409;52.168;20.878;2023-11-19T11:21:06;25.97;;;16.87;;
50483;SDS011;36409;52.168;20.878;2023-11-19T11:23:47;30.77;;;19.43;;
50483;SDS011;36409;52.168;20.878;2023-11-19T11:26:53;30.43;;;18.70;;
50483;SDS011;36409;52.168;20.878;2023-11-19T11:29:39;31.13;;;19.30;;
50483;SDS011;36409;52.168;20.878;2023-11-19T11:32:20;27.80;;;18.33;;
50483;SDS011;36409;52.168;20.878;2023-11-19T11:35:07;30.50;;;18.27;;
50483;SDS011;36409;52.168;20.878;2023-11-19T11:37:46;30.00;;;17.50;;
50483;SDS011;36409;52.168;20.878;2023-11-19T11:40:19;29.37;;;17.57;;
50483;SDS011;36409;52.168;20.878;2023-11-19T11:42:51;28.13;;;18.20;;
50483;SDS011;36409;52.168;20.878;2023-11-19T11:45:34;30.43;;;18.73;;
50483;SDS011;36409;52.168;20.878;2023-11-19T11:48:11;30.97;;;17.60;;
50483;SDS011;36409;52.168;20.878;2023-11-19T11:50:54;26.93;;;17.93;;
50483;SDS011;36409;52.168;20.878;2023-11-19T11:53:26;31.27;;;19.07;;
50483;SDS011;36409;52.168;20.878;2023-11-19T11:56:03;29.03;;;17.13;;
50483;SDS011;36409;52.168;20.878;2023-11-19T11:58:36;29.13;;;18.80;;
50483;SDS011;36409;52.168;20.878;2023-11-19T12:01:06;28.23;;;16.40;;
50483;SDS011;36409;52.168;20.878;2023-11-19T12:03:37;26.43;;;16.77;;
50483;SDS011;36409;52.168;20.878;2023-11-19T12:06:07;30.23;;;18.60;;
50483;SDS011;36409;52.168;20.878;2023-11-19T12:08:42;30.40;;;19.23;;
50483;SDS011;36409;52.168;20.878;2023-11-19T12:11:17;29.90;;;19.07;;
50483;SDS011;36409;52.168;20.878;2023-11-19T12:13:55;32.40;;;19.07;;
50483;SDS011;36409;52.168;20.878;2023-11-19T12:16:29;27.50;;;17.40;;
50483;SDS011;36409;52.168;20.878;2023-11-19T12:19:03;29.10;;;17.85;;
50483;SDS011;36409;52.168;20.878;2023-11-19T12:21:34;34.27;;;19.07;;
50483;SDS011;36409;52.168;20.878;2023-11-19T12:24:06;31.07;;;18.13;;
50483;SDS011;36409;52.168;20.878;2023-11-19T12:26:38;33.50;;;19.30;;
50483;SDS011;36409;52.168;20.878;2023-11-19T12:29:08;29.57;;;16.70;;
50483;SDS011;36409;52.168;20.878;2023-11-19T12:31:37;31.60;;;19.40;;
50483;SDS011;36409;52.168;20.878;2023-11-19T12:34:15;31.13;;;18.63;;
50483;SDS011;36409;52.168;20.878;2023-11-19T12:36:46;31.73;;;19.43;;
50483;SDS011;36409;52.168;20.878;2023-11-19T12:39:16;34.73;;;21.07;;
50483;SDS011;36409;52.168;20.878;2023-11-19T12:41:51;35.17;;;21.37;;
50483;SDS011;36409;52.168;20.878;2023-11-19T12:44:21;33.93;;;21.07;;
50483;SDS011;36409;52.168;20.878;2023-11-19T12:47:00;33.93;;;19.60;;
50483;SDS011;36409;52.168;20.878;2023-11-19T12:49:31;31.65;;;17.95;;
50483;SDS011;36409;52.168;20.878;2023-11-19T12:52:12;35.43;;;19.63;;
50483;SDS011;36409;52.168;20.878;2023-11-19T12:54:42;35.60;;;21.20;;
50483;SDS011;36409;52.168;20.878;2023-11-19T12:57:11;31.85;;;19.30;;
50483;SDS011;36409;52.168;20.878;2023-11-19T12:59:42;35.17;;;19.50;;
50483;SDS011;36409;52.168;20.878;2023-11-19T13:02:11;29.33;;;18.73;;
50483;SDS011;36409;52.168;20.878;2023-11-19T13:04:41;29.20;;;18.23;;
50483;SDS011;36409;52.168;20.878;2023-11-19T13:07:10;31.57;;;19.90;;
50483;SDS011;36409;52.168;20.878;2023-11-19T13:09:39;32.80;;;19.47;;
50483;SDS011;36409;52.168;20.878;2023-11-19T13:12:14;36.13;;;20.80;;
50483;SDS011;36409;52.168;20.878;2023-11-19T13:14:44;29.30;;;17.80;;
50483;SDS011;36409;52.168;20.878;2023-11-19T13:17:17;29.20;;;18.70;;
50483;SDS011;36409;52.168;20.878;2023-11-19T13:19:50;30.97;;;17.93;;
50483;SDS011;36409;52.168;20.878;2023-11-19T13:22:20;32.83;;;19.07;;
50483;SDS011;36409;52.168;20.878;2023-11-19T13:24:49;35.63;;;20.17;;
50483;SDS011;36409;52.168;20.878;2023-11-19T13:27:19;42.20;;;21.50;;
50483;SDS011;36409;52.168;20.878;2023-11-19T13:29:48;36.87;;;21.40;;
50483;SDS011;36409;52.168;20.878;2023-11-19T13:32:20;41.77;;;23.13;;
50483;SDS011;36409;52.168;20.878;2023-11-19T13:34:50;36.47;;;22.03;;
50483;SDS011;36409;52.168;20.878;2023-11-19T13:37:19;36.30;;;21.53;;
50483;SDS011;36409;52.168;20.878;2023-11-19T13:39:48;34.00;;;19.97;;
50483;SDS011;36409;52.168;20.878;2023-11-19T13:42:17;41.70;;;23.60;;
50483;SDS011;36409;52.168;20.878;2023-11-19T13:44:47;42.25;;;23.55;;
50483;SDS011;36409;52.168;20.878;2023-11-19T13:47:17;39.23;;;22.30;;
50483;SDS011;36409;52.168;20.878;2023-11-19T13:49:46;35.60;;;22.30;;
50483;SDS011;36409;52.168;20.878;2023-11-19T13:52:15;36.53;;;22.10;;
50483;SDS011;36409;52.168;20.878;2023-11-19T13:54:44;34.37;;;20.67;;
50483;SDS011;36409;52.168;20.878;2023-11-19T13:57:14;45.10;;;22.73;;
50483;SDS011;36409;52.168;20.878;2023-11-19T13:59:43;34.80;;;21.80;;
50483;SDS011;36409;52.168;20.878;2023-11-19T14:02:13;41.47;;;23.40;;
50483;SDS011;36409;52.168;20.878;2023-11-19T14:04:42;35.10;;;19.57;;
50483;SDS011;36409;52.168;20.878;2023-11-19T14:07:11;35.40;;;21.37;;
50483;SDS011;36409;52.168;20.878;2023-11-19T14:09:42;38.87;;;23.50;;
50483;SDS011;36409;52.168;20.878;2023-11-19T14:12:13;34.77;;;21.20;;
50483;SDS011;36409;52.168;20.878;2023-11-19T14:14:42;33.23;;;18.77;;
50483;SDS011;36409;52.168;20.878;2023-11-19T14:17:11;37.17;;;21.20;;
50483;SDS011;36409;52.168;20.878;2023-11-19T14:19:42;34.47;;;20.93;;
50483;SDS011;36409;52.168;20.878;2023-11-19T14:22:12;35.00;;;20.47;;
50483;SDS011;36409;52.168;20.878;2023-11-19T14:24:41;35.93;;;21.20;;
50483;SDS011;36409;52.168;20.878;2023-11-19T14:27:11;37.93;;;21.10;;
50483;SDS011;36409;52.168;20.878;2023-11-19T14:29:40;36.80;;;21.93;;
50483;SDS011;36409;52.168;20.878;2023-11-19T14:32:12;38.13;;;22.07;;